Time;durP1;ratioP1;P1;durP2;ratioP2;P2;SDS_P1;SDS_P2;PMS_P1;PMS_P2;Temp;Humidity;BMP_temperature;BMP_pressure;BME280_temperature;BME280_humidity;BME280_pressure;Samples;Min_cycle;Max_cycle;Signal;HPM_P1;HPM_P2
2023/08/10 00:02:03;;;;;;;5.72;2.60;;;;;;;;;;5096757;28;20031;-85
2023/08/10 00:04:29;;;;;;;6.35;2.30;;;;;;;;;;5094004;28;20020;-83
2023/08/10 00:06:54;;;;;;;6.53;2.30;;;;;;;;;;5089355;28;20024;-89
2023/08/10 00:09:20;;;;;;;6.97;2.55;;;;;;;;;;5097690;28;20438;-88
2023/08/10 00:11:46;;;;;;;3.85;2.58;;;;;;;;;;5096811;28;20356;-89
2023/08/10 00:14:12;;;;;;;6.25;2.53;;;;;;;;;;5096711;28;20028;-88
2023/08/10 00:16:37;;;;;;;3.63;2.10;;;;;;;;;;5096374;28;20016;-88
2023/08/10 00:19:03;;;;;;;4.10;2.30;;;;;;;;;;5096929;28;20040;-87
2023/08/10 00:21:30;;;;;;;4.55;2.30;;;;;;;;;;5096864;28;20455;-87
2023/08/10 00:23:58;;;;;;;4.45;2.17;;;;;;;;;;5095045;28;20036;-88
2023/08/10 00:26:24;;;;;;;4.65;2.08;;;;;;;;;;5096696;28;20024;-87
2023/08/10 00:28:50;;;;;;;3.83;2.20;;;;;;;;;;5094423;28;20034;-88
2023/08/10 00:31:16;;;;;;;4.65;1.98;;;;;;;;;;5097084;28;20035;-88
2023/08/10 00:33:41;;;;;;;4.60;2.42;;;;;;;;;;5095871;28;20020;-88
2023/08/10 00:36:07;;;;;;;4.68;2.35;;;;;;;;;;5078916;28;20039;-88
2023/08/10 00:38:38;;;;;;;4.95;2.60;;;;;;;;;;5095204;28;20024;-88
2023/08/10 00:41:04;;;;;;;5.30;2.50;;;;;;;;;;5094797;28;20076;-88
2023/08/10 00:43:29;;;;;;;5.70;2.30;;;;;;;;;;5094950;28;20020;-84
2023/08/10 00:45:55;;;;;;;5.63;1.98;;;;;;;;;;5089520;28;20480;-88
2023/08/10 00:48:22;;;;;;;4.18;2.20;;;;;;;;;;5091862;28;20476;-88
2023/08/10 00:50:49;;;;;;;4.65;2.50;;;;;;;;;;5092073;28;20024;-89
2023/08/10 00:53:16;;;;;;;4.00;2.17;;;;;;;;;;5095361;28;20059;-88
2023/08/10 00:55:43;;;;;;;3.58;2.03;;;;;;;;;;5096031;28;20046;-88
2023/08/10 00:58:11;;;;;;;6.00;2.35;;;;;;;;;;5093143;28;20024;-87
2023/08/10 01:00:38;;;;;;;5.03;2.13;;;;;;;;;;5103217;28;20021;-88
2023/08/10 01:03:04;;;;;;;3.22;1.98;;;;;;;;;;5092473;28;20028;-86
2023/08/10 01:05:38;;;;;;;3.85;2.10;;;;;;;;;;5091438;28;20476;-88
2023/08/10 01:08:18;;;;;;;4.00;2.30;;;;;;;;;;5088991;28;20103;-88
2023/08/10 01:10:52;;;;;;;3.72;1.90;;;;;;;;;;5095157;28;20035;-88
2023/08/10 01:13:18;;;;;;;4.13;2.03;;;;;;;;;;5112812;28;20039;-88
2023/08/10 01:15:48;;;;;;;4.57;1.85;;;;;;;;;;5086220;28;20017;-88
2023/08/10 01:18:18;;;;;;;3.58;2.08;;;;;;;;;;5087507;28;20554;-88
2023/08/10 01:20:46;;;;;;;6.05;2.20;;;;;;;;;;5085357;28;20023;-88
2023/08/10 01:23:17;;;;;;;6.10;1.98;;;;;;;;;;5089217;28;20032;-87
2023/08/10 01:25:43;;;;;;;4.40;1.90;;;;;;;;;;5087020;28;20498;-88
2023/08/10 01:28:12;;;;;;;4.43;2.13;;;;;;;;;;5088996;28;20129;-88
2023/08/10 01:30:39;;;;;;;4.55;2.30;;;;;;;;;;5099733;28;20456;-88
2023/08/10 01:33:04;;;;;;;6.07;2.30;;;;;;;;;;5092683;28;20391;-88
2023/08/10 01:35:30;;;;;;;4.55;2.10;;;;;;;;;;5097353;28;20036;-86
2023/08/10 01:37:55;;;;;;;3.33;2.05;;;;;;;;;;5099030;28;20020;-87
2023/08/10 01:40:21;;;;;;;4.90;2.35;;;;;;;;;;5093521;28;20055;-89
2023/08/10 01:42:46;;;;;;;4.50;2.22;;;;;;;;;;5086524;28;20032;-88
2023/08/10 01:45:12;;;;;;;4.32;2.22;;;;;;;;;;5084820;28;20383;-87
2023/08/10 01:47:47;;;;;;;3.60;2.08;;;;;;;;;;5095536;28;20016;-87
2023/08/10 01:50:16;;;;;;;4.32;2.00;;;;;;;;;;5095952;28;20024;-88
2023/08/10 01:52:51;;;;;;;3.40;2.15;;;;;;;;;;5099745;28;20028;-88
2023/08/10 01:55:17;;;;;;;4.68;2.33;;;;;;;;;;5095599;28;20031;-88
2023/08/10 01:57:43;;;;;;;3.95;2.05;;;;;;;;;;5099045;28;20115;-86
2023/08/10 02:00:10;;;;;;;9.50;2.20;;;;;;;;;;5099014;28;20027;-88
2023/08/10 02:02:36;;;;;;;3.78;2.40;;;;;;;;;;5096800;28;20119;-88
2023/08/10 02:05:01;;;;;;;4.13;2.45;;;;;;;;;;5099975;28;20023;-88
2023/08/10 02:07:27;;;;;;;4.38;2.45;;;;;;;;;;5098310;28;20034;-88
2023/08/10 02:09:52;;;;;;;3.42;2.33;;;;;;;;;;5089653;28;20039;-87
2023/08/10 02:12:17;;;;;;;4.72;2.20;;;;;;;;;;5096027;28;20112;-88
2023/08/10 02:14:43;;;;;;;5.15;2.78;;;;;;;;;;5086938;28;20020;-88
2023/08/10 02:17:08;;;;;;;5.25;2.30;;;;;;;;;;5095115;28;20071;-88
2023/08/10 02:19:34;;;;;;;4.78;2.28;;;;;;;;;;5093665;28;20069;-88
2023/08/10 02:21:59;;;;;;;4.65;2.45;;;;;;;;;;5093598;28;20034;-88
2023/08/10 02:24:24;;;;;;;3.88;2.42;;;;;;;;;;5094731;28;20027;-88
2023/08/10 02:26:50;;;;;;;5.07;2.75;;;;;;;;;;5093518;28;20016;-86
2023/08/10 02:29:15;;;;;;;4.68;2.80;;;;;;;;;;5092597;28;20467;-88
2023/08/10 02:31:40;;;;;;;4.85;2.55;;;;;;;;;;5091045;28;20024;-88
2023/08/10 02:34:06;;;;;;;4.03;2.30;;;;;;;;;;5091225;28;20016;-88
2023/08/10 02:36:32;;;;;;;4.50;2.72;;;;;;;;;;5095442;28;20028;-87
2023/08/10 02:38:57;;;;;;;3.90;2.38;;;;;;;;;;5091908;28;20395;-88
2023/08/10 02:41:22;;;;;;;5.20;2.45;;;;;;;;;;5091567;28;20039;-88
2023/08/10 02:43:48;;;;;;;5.97;2.97;;;;;;;;;;5092870;28;20104;-88
2023/08/10 02:46:13;;;;;;;6.72;2.58;;;;;;;;;;5087610;28;20146;-88
2023/08/10 02:48:38;;;;;;;4.15;2.42;;;;;;;;;;5086619;28;20016;-88
2023/08/10 02:51:04;;;;;;;5.38;2.90;;;;;;;;;;5090686;28;20020;-87
2023/08/10 02:53:30;;;;;;;4.65;2.67;;;;;;;;;;5087905;28;20056;-87
2023/08/10 02:55:55;;;;;;;4.80;2.80;;;;;;;;;;5089970;28;20020;-87
2023/08/10 02:58:21;;;;;;;3.75;2.63;;;;;;;;;;5085989;28;20024;-88
2023/08/10 03:00:47;;;;;;;4.13;2.50;;;;;;;;;;5089695;28;20028;-87
2023/08/10 03:03:12;;;;;;;4.22;2.90;;;;;;;;;;5089048;28;20028;-88
2023/08/10 03:05:38;;;;;;;4.07;2.60;;;;;;;;;;5090042;28;20027;-88
2023/08/10 03:08:03;;;;;;;5.68;3.00;;;;;;;;;;5081064;28;20021;-88
2023/08/10 03:10:29;;;;;;;4.35;2.95;;;;;;;;;;5087456;28;20024;-86
2023/08/10 03:12:54;;;;;;;5.20;2.58;;;;;;;;;;5086387;28;20021;-88
2023/08/10 03:15:20;;;;;;;4.47;2.75;;;;;;;;;;5086556;28;20023;-87
2023/08/10 03:17:45;;;;;;;4.93;2.88;;;;;;;;;;5080911;28;20031;-88
2023/08/10 03:20:13;;;;;;;4.20;2.83;;;;;;;;;;5109363;28;20023;-88
2023/08/10 03:22:39;;;;;;;4.43;2.78;;;;;;;;;;5092791;28;20100;-88
2023/08/10 03:25:05;;;;;;;5.43;3.17;;;;;;;;;;5088524;28;20028;-88
2023/08/10 03:27:31;;;;;;;4.45;3.00;;;;;;;;;;5097768;28;20541;-87
2023/08/10 03:29:56;;;;;;;4.47;2.88;;;;;;;;;;5093635;28;20028;-88
2023/08/10 03:32:21;;;;;;;5.68;2.90;;;;;;;;;;5082902;28;20028;-85
2023/08/10 03:34:47;;;;;;;6.18;3.60;;;;;;;;;;5083201;28;20077;-88
2023/08/10 03:37:12;;;;;;;5.72;3.10;;;;;;;;;;5083362;28;20019;-88
2023/08/10 03:39:38;;;;;;;5.38;3.20;;;;;;;;;;5082637;28;20021;-88
2023/08/10 03:42:03;;;;;;;6.00;3.20;;;;;;;;;;5086597;28;20479;-88
2023/08/10 03:44:28;;;;;;;7.93;3.70;;;;;;;;;;5083305;28;20031;-82
2023/08/10 03:46:54;;;;;;;6.68;3.75;;;;;;;;;;5090763;28;20016;-88
2023/08/10 03:49:19;;;;;;;4.78;3.22;;;;;;;;;;5082377;28;20475;-88
2023/08/10 03:51:45;;;;;;;6.70;3.22;;;;;;;;;;5089524;28;20045;-88
2023/08/10 03:54:10;;;;;;;6.40;3.20;;;;;;;;;;5083341;28;20102;-87
2023/08/10 03:56:37;;;;;;;5.28;3.10;;;;;;;;;;5091182;28;20395;-88
2023/08/10 03:59:04;;;;;;;5.80;3.10;;;;;;;;;;5092065;28;20020;-88
2023/08/10 04:01:30;;;;;;;4.63;3.08;;;;;;;;;;5088473;28;20028;-87
2023/08/10 04:03:55;;;;;;;5.03;2.88;;;;;;;;;;5092865;28;20096;-88
2023/08/10 04:06:22;;;;;;;4.90;3.25;;;;;;;;;;5093261;28;20400;-88
2023/08/10 04:08:48;;;;;;;6.03;3.38;;;;;;;;;;5091948;28;20097;-88
2023/08/10 04:11:14;;;;;;;5.82;3.40;;;;;;;;;;5082266;28;20059;-88
2023/08/10 04:13:40;;;;;;;5.68;3.50;;;;;;;;;;5091456;28;20024;-88
2023/08/10 04:16:06;;;;;;;4.68;3.13;;;;;;;;;;5092359;28;20110;-88
2023/08/10 04:18:31;;;;;;;5.07;3.58;;;;;;;;;;5091612;28;20103;-88
2023/08/10 04:20:57;;;;;;;6.57;3.30;;;;;;;;;;5091578;28;20103;-88
2023/08/10 04:23:22;;;;;;;5.68;3.17;;;;;;;;;;5091510;28;20031;-88
2023/08/10 04:25:48;;;;;;;5.60;3.42;;;;;;;;;;5090149;28;20033;-88
2023/08/10 04:28:13;;;;;;;5.90;3.33;;;;;;;;;;5092012;28;20055;-87
2023/08/10 04:30:38;;;;;;;6.10;3.30;;;;;;;;;;5086801;28;20048;-88
2023/08/10 04:33:04;;;;;;;5.55;3.35;;;;;;;;;;5086345;28;20085;-88
2023/08/10 04:35:29;;;;;;;5.72;3.60;;;;;;;;;;5094900;28;20027;-87
2023/08/10 04:37:55;;;;;;;5.95;3.10;;;;;;;;;;5106627;28;20087;-86
2023/08/10 04:40:21;;;;;;;4.72;3.35;;;;;;;;;;5090724;28;20029;-87
2023/08/10 04:42:46;;;;;;;4.75;3.20;;;;;;;;;;5095146;28;20024;-87
2023/08/10 04:45:12;;;;;;;5.43;3.13;;;;;;;;;;5097112;28;20016;-88
2023/08/10 04:47:38;;;;;;;5.85;3.22;;;;;;;;;;5097270;28;20085;-88
2023/08/10 04:50:04;;;;;;;4.85;2.90;;;;;;;;;;5097360;28;20035;-88
2023/08/10 04:52:29;;;;;;;5.15;3.40;;;;;;;;;;5089120;28;20099;-87
2023/08/10 04:54:55;;;;;;;5.22;3.38;;;;;;;;;;5095680;28;20320;-87
2023/08/10 04:57:20;;;;;;;5.05;3.00;;;;;;;;;;5096907;28;20032;-88
2023/08/10 04:59:46;;;;;;;5.28;3.30;;;;;;;;;;5091342;28;20484;-88
2023/08/10 05:02:13;;;;;;;4.13;3.00;;;;;;;;;;5101063;28;20601;-88
2023/08/10 05:04:38;;;;;;;5.82;3.35;;;;;;;;;;5099904;28;20027;-87
2023/08/10 05:07:04;;;;;;;4.78;3.13;;;;;;;;;;5102112;28;20028;-88
2023/08/10 05:09:30;;;;;;;5.55;3.25;;;;;;;;;;5100734;28;20047;-87
2023/08/10 05:11:55;;;;;;;4.93;3.20;;;;;;;;;;5102292;28;20016;-87
2023/08/10 05:14:20;;;;;;;6.68;3.90;;;;;;;;;;5101198;28;20081;-87
2023/08/10 05:16:46;;;;;;;6.45;3.53;;;;;;;;;;5101596;28;20024;-88
2023/08/10 05:19:11;;;;;;;6.25;4.00;;;;;;;;;;5098287;28;20020;-87
2023/08/10 05:21:37;;;;;;;8.57;4.75;;;;;;;;;;5096892;28;20024;-85
2023/08/10 05:24:02;;;;;;;5.47;3.50;;;;;;;;;;5097585;28;20340;-88
2023/08/10 05:26:27;;;;;;;6.13;3.72;;;;;;;;;;5105597;28;20126;-86
2023/08/10 05:28:53;;;;;;;5.93;3.60;;;;;;;;;;5100501;28;20085;-87
2023/08/10 05:31:20;;;;;;;5.70;3.40;;;;;;;;;;5096546;28;20020;-88
2023/08/10 05:33:45;;;;;;;6.70;3.50;;;;;;;;;;5092655;28;20486;-88
2023/08/10 05:36:11;;;;;;;6.35;3.33;;;;;;;;;;5097798;28;20036;-87
2023/08/10 05:38:38;;;;;;;4.20;3.00;;;;;;;;;;5096817;28;20020;-87
2023/08/10 05:41:03;;;;;;;4.72;3.40;;;;;;;;;;5092191;28;20049;-87
2023/08/10 05:43:29;;;;;;;6.35;3.72;;;;;;;;;;5092302;28;20016;-83
2023/08/10 05:45:54;;;;;;;4.20;2.83;;;;;;;;;;5095351;28;20026;-74
2023/08/10 05:48:19;;;;;;;7.55;3.88;;;;;;;;;;5086970;28;20128;-75
2023/08/10 05:50:45;;;;;;;5.75;3.20;;;;;;;;;;5100631;28;20043;-74
2023/08/10 05:53:10;;;;;;;5.63;3.45;;;;;;;;;;5096161;28;20032;-74
2023/08/10 05:55:36;;;;;;;10.35;4.68;;;;;;;;;;5097887;28;20122;-74
2023/08/10 05:58:01;;;;;;;6.53;3.67;;;;;;;;;;5091054;28;20019;-74
2023/08/10 06:00:27;;;;;;;9.63;4.38;;;;;;;;;;5092746;28;20495;-74
2023/08/10 06:02:52;;;;;;;6.50;3.40;;;;;;;;;;5087135;28;20029;-74
2023/08/10 06:05:18;;;;;;;5.32;3.35;;;;;;;;;;5089721;28;20028;-74
2023/08/10 06:07:47;;;;;;;7.03;4.00;;;;;;;;;;5094981;28;20028;-74
2023/08/10 06:10:15;;;;;;;8.15;3.90;;;;;;;;;;5089422;28;20020;-74
2023/08/10 06:12:41;;;;;;;5.82;3.72;;;;;;;;;;5092143;28;20031;-74
2023/08/10 06:15:08;;;;;;;6.60;3.58;;;;;;;;;;5090814;28;20024;-74
2023/08/10 06:17:34;;;;;;;6.63;3.80;;;;;;;;;;5094011;28;20149;-74
2023/08/10 06:19:59;;;;;;;5.82;3.78;;;;;;;;;;5093974;28;20488;-74
2023/08/10 06:22:25;;;;;;;6.85;4.00;;;;;;;;;;5095016;28;20016;-74
2023/08/10 06:24:50;;;;;;;5.72;3.63;;;;;;;;;;5091455;28;20027;-74
2023/08/10 06:27:15;;;;;;;8.13;3.67;;;;;;;;;;5094407;28;20020;-75
2023/08/10 06:29:41;;;;;;;8.20;4.22;;;;;;;;;;5089230;28;20023;-74
2023/08/10 06:32:07;;;;;;;6.80;3.75;;;;;;;;;;5092044;28;20116;-74
2023/08/10 06:34:33;;;;;;;5.40;3.60;;;;;;;;;;5103781;28;20245;-74
2023/08/10 06:36:59;;;;;;;5.65;3.70;;;;;;;;;;5095421;28;20020;-74
2023/08/10 06:39:27;;;;;;;5.32;3.78;;;;;;;;;;5085236;28;20463;-74
2023/08/10 06:41:53;;;;;;;7.95;4.05;;;;;;;;;;5097003;28;20472;-74
2023/08/10 06:44:19;;;;;;;8.00;3.58;;;;;;;;;;5092472;28;20091;-74
2023/08/10 06:46:44;;;;;;;8.80;4.18;;;;;;;;;;5078987;28;20035;-74
2023/08/10 06:49:10;;;;;;;6.43;4.15;;;;;;;;;;5093302;28;20038;-74
2023/08/10 06:51:36;;;;;;;6.42;4.08;;;;;;;;;;5085654;28;1116224;-77
2023/08/10 06:54:01;;;;;;;5.82;4.00;;;;;;;;;;5094562;28;20085;-74
2023/08/10 06:56:27;;;;;;;5.82;3.55;;;;;;;;;;5087257;28;20074;-75
2023/08/10 06:58:52;;;;;;;6.30;3.90;;;;;;;;;;5100725;28;20074;-75
2023/08/10 07:01:17;;;;;;;8.05;3.70;;;;;;;;;;5092618;28;20456;-75
2023/08/10 07:03:43;;;;;;;7.45;3.70;;;;;;;;;;5092386;28;20024;-75
2023/08/10 07:06:08;;;;;;;5.72;3.92;;;;;;;;;;5093195;28;20027;-75
2023/08/10 07:08:34;;;;;;;5.45;3.60;;;;;;;;;;5095580;28;20464;-75
2023/08/10 07:11:03;;;;;;;5.72;3.67;;;;;;;;;;5092702;28;20024;-76
2023/08/10 07:13:28;;;;;;;3.83;2.38;;;;;;;;;;5089111;28;20099;-75
2023/08/10 07:15:54;;;;;;;4.68;2.65;;;;;;;;;;5092683;28;20054;-75
2023/08/10 07:18:19;;;;;;;4.88;2.55;;;;;;;;;;5080621;28;20024;-75
2023/08/10 07:20:45;;;;;;;5.50;2.65;;;;;;;;;;5093676;28;20475;-75
2023/08/10 07:23:11;;;;;;;4.32;2.30;;;;;;;;;;5093057;28;20472;-75
2023/08/10 07:25:37;;;;;;;3.38;2.17;;;;;;;;;;5090322;28;20028;-75
2023/08/10 07:28:05;;;;;;;4.60;1.88;;;;;;;;;;5098609;28;20019;-75
2023/08/10 07:30:31;;;;;;;2.67;1.60;;;;;;;;;;5093796;28;20024;-75
2023/08/10 07:32:56;;;;;;;4.65;2.47;;;;;;;;;;5087730;28;20387;-75
2023/08/10 07:35:23;;;;;;;3.33;2.08;;;;;;;;;;5091673;28;20479;-75
2023/08/10 07:37:49;;;;;;;3.33;2.00;;;;;;;;;;5087533;28;20135;-75
2023/08/10 07:40:14;;;;;;;3.25;1.63;;;;;;;;;;5084938;28;20111;-74
2023/08/10 07:42:40;;;;;;;4.07;1.80;;;;;;;;;;5092078;28;20048;-75
2023/08/10 07:45:09;;;;;;;5.07;1.55;;;;;;;;;;5089380;28;20028;-75
2023/08/10 07:47:35;;;;;;;3.05;1.55;;;;;;;;;;5096486;28;20020;-75
2023/08/10 07:50:00;;;;;;;2.88;1.50;;;;;;;;;;5090641;28;20027;-75
2023/08/10 07:52:25;;;;;;;4.95;1.60;;;;;;;;;;5095706;28;20063;-74
2023/08/10 07:54:51;;;;;;;3.15;1.67;;;;;;;;;;5094527;28;20016;-75
2023/08/10 07:57:16;;;;;;;3.95;1.88;;;;;;;;;;5083765;28;20029;-75
2023/08/10 07:59:41;;;;;;;3.55;1.65;;;;;;;;;;5077520;28;20490;-76
2023/08/10 08:02:08;;;;;;;4.60;1.83;;;;;;;;;;5087680;28;20031;-74
2023/08/10 08:04:33;;;;;;;3.22;1.38;;;;;;;;;;5082081;28;20510;-87
2023/08/10 08:06:59;;;;;;;2.83;1.45;;;;;;;;;;5083209;28;20020;-87
2023/08/10 08:09:24;;;;;;;2.83;1.55;;;;;;;;;;5091599;28;20032;-88
2023/08/10 08:11:50;;;;;;;4.15;1.77;;;;;;;;;;5091597;28;20111;-87
2023/08/10 08:14:15;;;;;;;2.55;1.42;;;;;;;;;;5089451;28;20021;-88
2023/08/10 08:16:41;;;;;;;3.35;1.60;;;;;;;;;;5085979;28;20395;-86
2023/08/10 08:19:06;;;;;;;2.38;1.40;;;;;;;;;;5084510;28;20020;-87
2023/08/10 08:21:31;;;;;;;4.85;2.10;;;;;;;;;;5089807;28;20047;-85
2023/08/10 08:23:58;;;;;;;4.60;1.88;;;;;;;;;;5092790;28;20450;-87
2023/08/10 08:26:24;;;;;;;3.42;1.95;;;;;;;;;;5092566;28;20016;-87
2023/08/10 08:28:50;;;;;;;4.40;2.00;;;;;;;;;;5087768;28;20043;-87
2023/08/10 08:31:16;;;;;;;4.60;2.55;;;;;;;;;;5084148;28;20051;-88
2023/08/10 08:33:42;;;;;;;3.78;1.98;;;;;;;;;;5092360;28;20375;-85
2023/08/10 08:36:08;;;;;;;4.90;2.22;;;;;;;;;;5092160;28;20020;-87
2023/08/10 08:38:34;;;;;;;6.15;2.30;;;;;;;;;;5090593;28;20020;-86
2023/08/10 08:41:08;;;;;;;4.25;2.33;;;;;;;;;;5091138;28;20027;-87
2023/08/10 08:43:35;;;;;;;4.60;1.63;;;;;;;;;;5091441;28;20484;-86
2023/08/10 08:46:02;;;;;;;4.55;1.85;;;;;;;;;;5091286;28;20086;-84
2023/08/10 08:48:28;;;;;;;3.22;1.80;;;;;;;;;;5091299;28;20020;-87
2023/08/10 08:50:54;;;;;;;2.55;1.65;;;;;;;;;;5089748;28;20024;-88
2023/08/10 08:53:20;;;;;;;2.88;1.40;;;;;;;;;;5090550;28;20020;-87
2023/08/10 08:55:46;;;;;;;2.47;1.48;;;;;;;;;;5084009;28;20102;-87
2023/08/10 08:58:15;;;;;;;2.88;1.20;;;;;;;;;;5088821;28;20028;-88
2023/08/10 09:00:42;;;;;;;3.40;1.50;;;;;;;;;;5089040;28;20103;-87
2023/08/10 09:03:07;;;;;;;2.08;1.30;;;;;;;;;;5088475;28;20028;-87
2023/08/10 09:05:33;;;;;;;2.85;1.17;;;;;;;;;;5090062;28;20498;-84
2023/08/10 09:07:58;;;;;;;2.65;1.00;;;;;;;;;;5087192;28;20027;-87
2023/08/10 09:10:24;;;;;;;2.35;1.27;;;;;;;;;;5089474;28;20028;-87
2023/08/10 09:12:49;;;;;;;1.55;1.17;;;;;;;;;;5090930;28;20020;-87
2023/08/10 09:15:18;;;;;;;2.25;1.10;;;;;;;;;;5087920;28;20016;-74
2023/08/10 09:17:54;;;;;;;1.85;1.08;;;;;;;;;;5090726;28;20069;-74
2023/08/10 09:20:28;;;;;;;3.97;1.20;;;;;;;;;;5086914;28;20020;-74
2023/08/10 09:22:55;;;;;;;3.03;1.35;;;;;;;;;;5087668;28;20016;-74
2023/08/10 09:25:21;;;;;;;2.80;1.20;;;;;;;;;;5085566;28;20024;-74
2023/08/10 09:27:48;;;;;;;2.03;1.10;;;;;;;;;;5068207;28;20028;-75
2023/08/10 09:30:15;;;;;;;2.58;1.15;;;;;;;;;;5089042;28;20274;-74
2023/08/10 09:32:41;;;;;;;3.45;1.20;;;;;;;;;;5081593;28;20028;-74
2023/08/10 09:35:12;;;;;;;3.00;1.23;;;;;;;;;;5090259;28;20164;-74
2023/08/10 09:37:37;;;;;;;4.03;1.42;;;;;;;;;;5092600;28;20487;-74
2023/08/10 09:40:10;;;;;;;2.25;1.08;;;;;;;;;;5103177;28;20024;-74
2023/08/10 09:42:36;;;;;;;3.92;1.30;;;;;;;;;;5084843;28;20103;-74
2023/08/10 09:45:09;;;;;;;2.25;1.30;;;;;;;;;;5082595;28;20531;-75
2023/08/10 09:47:38;;;;;;;2.40;1.13;;;;;;;;;;5086785;28;20475;-74
2023/08/10 09:50:07;;;;;;;3.45;1.25;;;;;;;;;;5094375;28;20490;-75
2023/08/10 09:52:36;;;;;;;3.10;1.30;;;;;;;;;;5074742;28;20456;-74
2023/08/10 09:55:02;;;;;;;2.60;1.10;;;;;;;;;;5094964;28;20027;-74
2023/08/10 09:57:28;;;;;;;2.55;1.30;;;;;;;;;;5081407;28;20383;-74
2023/08/10 09:59:56;;;;;;;2.65;1.00;;;;;;;;;;5098442;28;20053;-74
2023/08/10 10:02:23;;;;;;;3.17;1.20;;;;;;;;;;5096821;28;20028;-74
2023/08/10 10:04:50;;;;;;;2.65;1.30;;;;;;;;;;5080937;28;20039;-74
2023/08/10 10:07:25;;;;;;;2.65;1.40;;;;;;;;;;5087343;28;20016;-74
2023/08/10 10:09:51;;;;;;;2.63;1.05;;;;;;;;;;5092513;28;20055;-74
2023/08/10 10:12:18;;;;;;;4.40;1.30;;;;;;;;;;5093912;28;20584;-74
2023/08/10 10:14:47;;;;;;;3.90;1.33;;;;;;;;;;5093894;28;20052;-74
2023/08/10 10:17:16;;;;;;;3.17;1.30;;;;;;;;;;5092796;28;20027;-74
2023/08/10 10:19:43;;;;;;;1.85;1.10;;;;;;;;;;5093800;28;20081;-74
2023/08/10 10:22:10;;;;;;;3.17;1.38;;;;;;;;;;5082296;28;20024;-74
2023/08/10 10:24:42;;;;;;;2.92;1.20;;;;;;;;;;5095200;28;20414;-74
2023/08/10 10:27:10;;;;;;;3.75;1.52;;;;;;;;;;5093455;28;20020;-75
2023/08/10 10:29:36;;;;;;;2.80;1.45;;;;;;;;;;5093599;28;20027;-74
2023/08/10 10:32:18;;;;;;;2.33;1.15;;;;;;;;;;5086256;28;20020;-74
2023/08/10 10:34:45;;;;;;;3.22;1.25;;;;;;;;;;5094408;28;20379;-74
2023/08/10 10:37:37;;;;;;;3.85;1.40;;;;;;;;;;5090057;28;20016;-75
2023/08/10 10:40:13;;;;;;;3.60;1.50;;;;;;;;;;5097634;28;20116;-74
2023/08/10 10:43:01;;;;;;;3.15;1.35;;;;;;;;;;5097703;28;20361;-75
2023/08/10 10:45:26;;;;;;;3.17;1.50;;;;;;;;;;5088734;28;20500;-75
2023/08/10 10:47:54;;;;;;;2.20;1.23;;;;;;;;;;5093943;28;20016;-75
2023/08/10 10:50:22;;;;;;;3.35;1.20;;;;;;;;;;5091550;28;20020;-74
2023/08/10 10:53:01;;;;;;;4.07;1.60;;;;;;;;;;5058699;28;20578;-74
2023/08/10 10:55:38;;;;;;;3.22;1.70;;;;;;;;;;5046450;28;20025;-75
2023/08/10 10:58:06;;;;;;;5.35;1.60;;;;;;;;;;5048703;28;20029;-74
2023/08/10 11:00:33;;;;;;;3.47;1.70;;;;;;;;;;5050277;28;20469;-75
2023/08/10 11:03:02;;;;;;;2.33;1.27;;;;;;;;;;5050272;28;20028;-75
2023/08/10 11:05:27;;;;;;;3.78;1.65;;;;;;;;;;5055096;28;20092;-75
2023/08/10 11:07:53;;;;;;;3.15;1.70;;;;;;;;;;5054613;28;20065;-74
2023/08/10 11:10:24;;;;;;;2.85;1.23;;;;;;;;;;5052818;28;20025;-75
2023/08/10 11:12:51;;;;;;;2.88;1.90;;;;;;;;;;5054226;28;20025;-74
2023/08/10 11:15:17;;;;;;;3.30;1.50;;;;;;;;;;5054893;28;20030;-75
2023/08/10 11:17:48;;;;;;;4.60;1.60;;;;;;;;;;5061004;28;20027;-75
2023/08/10 11:20:15;;;;;;;2.08;1.10;;;;;;;;;;5077918;28;20024;-75
2023/08/10 11:22:44;;;;;;;4.10;1.42;;;;;;;;;;5049870;28;20380;-77
2023/08/10 11:25:15;;;;;;;2.67;1.50;;;;;;;;;;5051280;28;20025;-74
2023/08/10 11:27:43;;;;;;;3.45;1.67;;;;;;;;;;5050387;28;20033;-75
2023/08/10 11:30:10;;;;;;;2.60;1.48;;;;;;;;;;5052291;28;20491;-74
2023/08/10 11:32:40;;;;;;;2.17;1.30;;;;;;;;;;5045551;28;20033;-75
2023/08/10 11:35:08;;;;;;;3.33;1.70;;;;;;;;;;5061861;28;20017;-76
2023/08/10 11:37:34;;;;;;;4.68;1.60;;;;;;;;;;5064592;28;20025;-75
2023/08/10 11:40:16;;;;;;;5.78;1.70;;;;;;;;;;5059436;28;20020;-75
2023/08/10 11:43:11;;;;;;;2.70;1.60;;;;;;;;;;5050841;28;20075;-76
2023/08/10 11:45:38;;;;;;;2.00;1.30;;;;;;;;;;5060900;28;20434;-76
2023/08/10 11:48:07;;;;;;;2.78;1.20;;;;;;;;;;5066879;28;20028;-75
2023/08/10 11:50:33;;;;;;;3.03;1.23;;;;;;;;;;5052123;28;20013;-76
2023/08/10 11:53:14;;;;;;;2.88;1.40;;;;;;;;;;5083850;28;20100;-75
2023/08/10 11:55:50;;;;;;;2.10;1.40;;;;;;;;;;5092008;28;20703;-75
2023/08/10 11:58:17;;;;;;;3.80;1.40;;;;;;;;;;5089049;28;20108;-75
2023/08/10 12:00:46;;;;;;;4.47;1.80;;;;;;;;;;5094335;28;20106;-75
2023/08/10 12:03:22;;;;;;;2.80;1.48;;;;;;;;;;5080797;28;20032;-76
2023/08/10 12:05:55;;;;;;;2.10;1.20;;;;;;;;;;5091799;28;20027;-76
2023/08/10 12:08:29;;;;;;;3.63;1.75;;;;;;;;;;5091299;28;20541;-75
2023/08/10 12:11:06;;;;;;;3.53;1.45;;;;;;;;;;5068265;28;20028;-76
2023/08/10 12:13:33;;;;;;;3.85;1.60;;;;;;;;;;5083714;28;20018;-76
2023/08/10 12:16:02;;;;;;;4.28;1.95;;;;;;;;;;5085824;28;20028;-75
2023/08/10 12:18:28;;;;;;;3.50;1.67;;;;;;;;;;5078835;28;20057;-75
2023/08/10 12:20:54;;;;;;;3.42;1.50;;;;;;;;;;5088548;28;20487;-75
2023/08/10 12:23:20;;;;;;;2.67;1.48;;;;;;;;;;5091487;28;20031;-76
2023/08/10 12:25:50;;;;;;;2.88;1.60;;;;;;;;;;5092440;28;20031;-75
2023/08/10 12:28:17;;;;;;;4.20;1.40;;;;;;;;;;5087710;28;20020;-76
2023/08/10 12:30:44;;;;;;;3.35;1.83;;;;;;;;;;5088955;28;20112;-76
2023/08/10 12:33:11;;;;;;;3.83;1.50;;;;;;;;;;5091612;28;20104;-76
2023/08/10 12:35:37;;;;;;;2.83;1.40;;;;;;;;;;5089113;28;20113;-76
2023/08/10 12:38:03;;;;;;;4.22;1.42;;;;;;;;;;5085679;28;20020;-76
2023/08/10 12:40:29;;;;;;;3.65;1.58;;;;;;;;;;5090059;28;20503;-77
2023/08/10 12:42:55;;;;;;;2.63;1.30;;;;;;;;;;5092444;28;20017;-76
2023/08/10 12:45:21;;;;;;;2.42;1.27;;;;;;;;;;5093320;28;20028;-90
2023/08/10 12:47:46;;;;;;;2.97;1.60;;;;;;;;;;5094437;28;20034;-88
2023/08/10 12:50:17;;;;;;;2.53;1.30;;;;;;;;;;5092987;28;20024;-90
2023/08/10 12:52:43;;;;;;;3.22;1.42;;;;;;;;;;5092251;28;20111;-90
2023/08/10 12:55:09;;;;;;;3.17;1.23;;;;;;;;;;5094113;28;20023;-88
2023/08/10 12:57:35;;;;;;;3.28;1.60;;;;;;;;;;5093724;28;20044;-90
2023/08/10 13:00:08;;;;;;;3.67;1.60;;;;;;;;;;5092706;28;20085;-89
2023/08/10 13:02:34;;;;;;;3.20;1.83;;;;;;;;;;5086435;28;20385;-90
2023/08/10 13:04:59;;;;;;;3.95;1.45;;;;;;;;;;5090816;28;20518;-89
2023/08/10 13:07:25;;;;;;;3.60;1.80;;;;;;;;;;5089976;28;20072;-89
2023/08/10 13:09:50;;;;;;;3.75;1.40;;;;;;;;;;5101506;28;20028;-91
2023/08/10 13:12:16;;;;;;;4.15;1.55;;;;;;;;;;5090009;28;20093;-89
2023/08/10 13:14:41;;;;;;;3.13;1.70;;;;;;;;;;5088930;28;20019;-91
2023/08/10 13:17:07;;;;;;;4.78;1.58;;;;;;;;;;5102806;28;20026;-88
2023/08/10 13:19:33;;;;;;;3.83;1.50;;;;;;;;;;5085303;28;20037;-90
2023/08/10 13:21:59;;;;;;;3.03;1.60;;;;;;;;;;5091963;28;20081;-89
2023/08/10 13:24:25;;;;;;;4.93;1.80;;;;;;;;;;5091550;28;20027;-87
2023/08/10 13:26:51;;;;;;;2.97;1.73;;;;;;;;;;5101152;28;20114;-90
2023/08/10 13:29:19;;;;;;;4.40;1.83;;;;;;;;;;5090186;28;20016;-90
2023/08/10 13:31:45;;;;;;;4.53;1.90;;;;;;;;;;5086807;28;20119;-90
2023/08/10 13:34:13;;;;;;;1.90;1.35;;;;;;;;;;5096177;28;20503;-90
2023/08/10 13:36:39;;;;;;;3.05;1.73;;;;;;;;;;5095193;28;20020;-91
2023/08/10 13:39:06;;;;;;;4.20;1.70;;;;;;;;;;5103735;28;20502;-90
2023/08/10 13:41:31;;;;;;;3.38;1.88;;;;;;;;;;5089053;28;20069;-90
2023/08/10 13:43:56;;;;;;;3.60;1.77;;;;;;;;;;5091500;28;20024;-90
2023/08/10 13:46:22;;;;;;;4.85;2.30;;;;;;;;;;5092251;28;20031;-90
2023/08/10 13:48:47;;;;;;;3.60;1.98;;;;;;;;;;5096879;28;20050;-89
2023/08/10 13:51:13;;;;;;;5.25;2.10;;;;;;;;;;5096433;28;20085;-88
2023/08/10 13:53:38;;;;;;;3.55;2.00;;;;;;;;;;5095745;28;20065;-88
2023/08/10 13:56:04;;;;;;;3.88;2.10;;;;;;;;;;5090824;28;20043;-76
2023/08/10 13:58:29;;;;;;;4.22;2.35;;;;;;;;;;5093947;28;20027;-77
2023/08/10 14:00:55;;;;;;;4.88;2.05;;;;;;;;;;5094991;28;20020;-76
2023/08/10 14:03:20;;;;;;;4.75;2.10;;;;;;;;;;5091857;28;20131;-76
2023/08/10 14:05:46;;;;;;;3.72;1.90;;;;;;;;;;5094972;28;20027;-77
2023/08/10 14:08:12;;;;;;;2.95;1.73;;;;;;;;;;5087870;28;20025;-76
2023/08/10 14:10:37;;;;;;;3.30;1.67;;;;;;;;;;5089164;28;20115;-76
2023/08/10 14:13:03;;;;;;;4.35;2.00;;;;;;;;;;5095384;28;20035;-76
2023/08/10 14:15:29;;;;;;;4.57;1.80;;;;;;;;;;5095121;28;20016;-77
2023/08/10 14:17:54;;;;;;;3.03;1.70;;;;;;;;;;5089068;28;20032;-76
2023/08/10 14:20:20;;;;;;;4.00;1.90;;;;;;;;;;5093899;28;20024;-76
2023/08/10 14:22:45;;;;;;;4.25;2.47;;;;;;;;;;5087990;28;20058;-77
2023/08/10 14:25:11;;;;;;;4.45;1.95;;;;;;;;;;5093652;28;20020;-76
2023/08/10 14:27:36;;;;;;;3.78;2.13;;;;;;;;;;5089657;28;20395;-76
2023/08/10 14:30:03;;;;;;;3.75;2.40;;;;;;;;;;5097714;28;20020;-76
2023/08/10 14:32:28;;;;;;;3.22;2.00;;;;;;;;;;5082336;28;20078;-78
2023/08/10 14:34:54;;;;;;;3.42;2.00;;;;;;;;;;5093493;28;20036;-76
2023/08/10 14:37:20;;;;;;;2.90;1.55;;;;;;;;;;5080495;28;20020;-76
2023/08/10 14:39:45;;;;;;;3.42;1.80;;;;;;;;;;5082293;28;20032;-77
2023/08/10 14:42:11;;;;;;;4.15;1.98;;;;;;;;;;5094799;28;20056;-76